createdAt,value
2023-04-23T00:01:29.501Z,32.62
2023-04-23T00:04:01.950Z,32.66
2023-04-23T00:06:34.261Z,32.49
2023-04-23T00:09:05.570Z,32.93
2023-04-23T00:11:36.393Z,32.68
2023-04-23T00:14:07.138Z,32.91
2023-04-23T00:16:37.785Z,32.97
2023-04-23T00:19:09.302Z,32.83
2023-04-23T00:21:39.973Z,32.69
2023-04-23T00:24:11.142Z,33.03
2023-04-23T00:26:41.517Z,32.51
2023-04-23T00:29:12.861Z,32.52
2023-04-23T00:31:43.325Z,32.87
2023-04-23T00:34:13.692Z,33.01
2023-04-23T00:36:45.202Z,33.05
2023-04-23T00:39:15.625Z,33.15
2023-04-23T00:41:46.247Z,33.20
2023-04-23T00:44:17.446Z,32.98
2023-04-23T00:46:49.023Z,33.43
2023-04-23T00:49:21.011Z,33.27
2023-04-23T00:51:51.999Z,32.56
2023-04-23T00:54:23.563Z,33.21
2023-04-23T00:56:55.076Z,32.79
2023-04-23T00:59:26.645Z,32.79
2023-04-23T01:01:59.664Z,33.02
2023-04-23T01:04:32.132Z,33.23
2023-04-23T01:07:02.613Z,32.91
2023-04-23T01:09:34.079Z,33.06
2023-04-23T01:12:07.524Z,32.86
2023-04-23T01:14:40.008Z,33.09
2023-04-23T01:17:10.844Z,32.64
2023-04-23T01:19:42.130Z,33.42
2023-04-23T01:22:15.082Z,33.09
2023-04-23T01:24:45.733Z,33.30
2023-04-23T01:27:17.635Z,33.49
2023-04-23T01:29:49.896Z,33.41
2023-04-23T01:32:20.576Z,33.19
2023-04-23T01:34:52.955Z,33.68
2023-04-23T01:37:25.350Z,33.22
2023-04-23T01:39:56.104Z,33.58
2023-04-23T01:42:26.320Z,33.46
2023-04-23T01:44:57.087Z,33.56
2023-04-23T01:47:28.223Z,33.16
2023-04-23T01:49:59.044Z,33.28
2023-04-23T01:52:30.202Z,33.62
2023-04-23T01:55:00.977Z,33.69
2023-04-23T01:57:31.454Z,33.56
2023-04-23T02:00:12.718Z,33.36
2023-04-23T02:02:44.979Z,33.39
2023-04-23T02:05:19.935Z,33.70
2023-04-23T02:07:52.405Z,34.03
2023-04-23T02:10:22.958Z,33.35
2023-04-23T02:12:54.035Z,33.70
2023-04-23T02:15:24.833Z,33.57
2023-04-23T02:17:55.486Z,33.33
2023-04-23T02:20:26.756Z,33.34
2023-04-23T02:22:58.332Z,33.51
2023-04-23T02:25:29.387Z,33.28
2023-04-23T02:28:01.306Z,33.43
2023-04-23T02:30:31.657Z,33.60
2023-04-23T02:33:02.311Z,33.68
2023-04-23T02:35:33.078Z,33.73
2023-04-23T02:38:03.682Z,33.59
2023-04-23T02:40:34.833Z,33.88
2023-04-23T02:43:05.295Z,34.02
2023-04-23T02:45:36.636Z,33.60
2023-04-23T02:48:07.242Z,33.67
2023-04-23T02:50:37.903Z,33.42
2023-04-23T02:53:08.335Z,33.03
2023-04-23T02:55:39.032Z,33.42
2023-04-23T02:58:09.552Z,33.32
2023-04-23T03:00:41.346Z,33.07
2023-04-23T03:03:12.827Z,33.27
2023-04-23T03:05:43.538Z,33.30
2023-04-23T03:08:13.921Z,33.34
2023-04-23T03:10:44.269Z,32.96
2023-04-23T03:13:15.042Z,32.76
2023-04-23T03:15:45.681Z,33.04
2023-04-23T03:18:16.127Z,32.68
2023-04-23T03:20:49.269Z,32.39
2023-04-23T03:23:20.994Z,32.73
2023-04-23T03:25:51.872Z,32.76
2023-04-23T03:28:22.597Z,32.58
2023-04-23T03:30:53.129Z,32.51
2023-04-23T03:33:23.715Z,32.42
2023-04-23T03:35:54.439Z,32.82
2023-04-23T03:38:30.584Z,32.46
2023-04-23T03:41:02.416Z,32.04
2023-04-23T03:43:32.829Z,32.05
2023-04-23T03:46:08.101Z,32.01
2023-04-23T03:48:42.244Z,32.08
2023-04-23T03:51:19.822Z,32.01
2023-04-23T03:53:53.415Z,31.52
2023-04-23T03:56:41.730Z,31.93
2023-04-23T03:59:15.514Z,32.00
2023-04-23T04:01:47.797Z,32.28
2023-04-23T04:04:18.940Z,32.15
2023-04-23T04:06:51.513Z,31.71
2023-04-23T04:09:22.186Z,31.51
2023-04-23T04:11:53.420Z,31.05
2023-04-23T04:14:25.029Z,30.70
2023-04-23T04:16:56.377Z,31.04
2023-04-23T04:19:27.231Z,31.05
2023-04-23T04:21:58.153Z,30.75
2023-04-23T04:24:28.874Z,31.23
2023-04-23T04:27:00.074Z,31.49
2023-04-23T04:29:30.593Z,30.99
2023-04-23T04:32:01.915Z,31.41
2023-04-23T04:34:32.506Z,30.99
2023-04-23T04:37:02.897Z,30.87
2023-04-23T04:39:33.295Z,31.17
2023-04-23T04:42:04.522Z,31.33
2023-04-23T04:44:34.902Z,30.98
2023-04-23T04:47:05.699Z,30.37
2023-04-23T04:49:36.361Z,30.78
2023-04-23T04:52:06.690Z,29.94
2023-04-23T04:54:37.320Z,29.45
2023-04-23T04:57:08.015Z,29.77
2023-04-23T04:59:38.442Z,29.02
2023-04-23T05:02:09.194Z,28.84
2023-04-23T05:04:39.842Z,28.99
2023-04-23T05:07:11.243Z,29.09
2023-04-23T05:09:42.936Z,29.31
2023-04-23T05:12:15.059Z,29.83
2023-04-23T05:14:45.422Z,29.61
2023-04-23T05:17:15.958Z,30.29
2023-04-23T05:19:46.315Z,28.77
2023-04-23T05:22:19.044Z,29.53
2023-04-23T05:24:49.505Z,29.19
2023-04-23T05:27:20.215Z,29.49
2023-04-23T05:29:50.460Z,29.37
2023-04-23T05:32:20.962Z,29.26
2023-04-23T05:34:51.567Z,29.56
2023-04-23T05:37:22.398Z,29.07
2023-04-23T05:39:53.236Z,29.28
2023-04-23T05:42:23.959Z,29.26
2023-04-23T05:44:54.544Z,29.40
2023-04-23T05:47:24.740Z,29.37
2023-04-23T05:49:55.353Z,29.73
2023-04-23T05:52:26.668Z,29.60
2023-04-23T05:54:56.957Z,29.18
2023-04-23T05:57:27.997Z,29.64
2023-04-23T05:59:58.256Z,29.44
2023-04-23T06:02:30.246Z,29.30
2023-04-23T06:05:01.880Z,29.44
2023-04-23T06:07:32.572Z,29.80
2023-04-23T06:10:03.549Z,29.93
2023-04-23T06:12:34.282Z,29.61
2023-04-23T06:15:04.636Z,29.85
2023-04-23T06:17:35.089Z,29.50
2023-04-23T06:20:06.637Z,29.96
2023-04-23T06:22:37.185Z,29.76
2023-04-23T06:25:08.957Z,30.38
2023-04-23T06:27:39.486Z,30.42
2023-04-23T06:30:17.409Z,30.41
2023-04-23T06:32:48.929Z,30.28
2023-04-23T06:35:19.287Z,30.45
2023-04-23T06:37:49.870Z,30.52
2023-04-23T06:40:20.281Z,29.77
2023-04-23T06:42:50.936Z,29.37
2023-04-23T06:45:36.736Z,29.95
2023-04-23T06:48:07.260Z,30.34
2023-04-23T06:50:38.250Z,29.77
2023-04-23T06:53:08.909Z,29.69
2023-04-23T06:55:39.511Z,29.89
2023-04-23T06:58:09.891Z,29.87
2023-04-23T07:00:41.112Z,29.88
2023-04-23T07:03:12.264Z,29.42
2023-04-23T07:05:43.093Z,29.39
2023-04-23T07:08:13.649Z,29.36
2023-04-23T07:10:44.281Z,29.48
2023-04-23T07:13:14.803Z,29.28
2023-04-23T07:15:45.592Z,29.42
2023-04-23T07:18:16.109Z,29.51
2023-04-23T07:20:46.500Z,29.17
2023-04-23T07:23:16.975Z,28.93
2023-04-23T07:25:47.298Z,29.46
2023-04-23T07:28:17.869Z,29.46
2023-04-23T07:30:48.334Z,29.32
2023-04-23T07:33:18.851Z,29.79
2023-04-23T07:35:49.235Z,28.79
2023-04-23T07:38:19.618Z,28.77
2023-04-23T07:40:50.351Z,29.51
2023-04-23T07:43:20.626Z,29.53
2023-04-23T07:45:51.226Z,29.48
2023-04-23T07:48:22.132Z,29.38
2023-04-23T07:50:52.780Z,29.29
2023-04-23T07:53:23.804Z,29.34
2023-04-23T07:55:54.369Z,29.32
2023-04-23T07:58:28.550Z,29.42
2023-04-23T08:00:59.267Z,29.32
2023-04-23T08:03:31.116Z,29.75
2023-04-23T08:06:01.575Z,29.98
2023-04-23T08:08:32.018Z,29.67
2023-04-23T08:11:03.708Z,29.73
2023-04-23T08:13:34.281Z,29.32
2023-04-23T08:16:04.806Z,29.76
2023-04-23T08:18:35.107Z,29.63
2023-04-23T08:21:05.657Z,29.44
2023-04-23T08:23:36.235Z,29.71
2023-04-23T08:26:06.646Z,29.48
2023-04-23T08:28:37.519Z,29.57
2023-04-23T08:31:18.874Z,29.44
2023-04-23T08:33:56.193Z,29.72
2023-04-23T08:36:28.295Z,29.41
2023-04-23T08:38:58.644Z,29.15
2023-04-23T08:41:37.377Z,29.79
2023-04-23T08:44:27.421Z,29.56
2023-04-23T08:47:00.319Z,29.89
2023-04-23T08:49:37.168Z,29.79
2023-04-23T08:52:27.610Z,29.48
2023-04-23T08:55:07.366Z,29.84
2023-04-23T08:57:39.056Z,29.82
2023-04-23T09:00:14.008Z,29.95
2023-04-23T09:02:46.490Z,29.63
2023-04-23T09:05:18.064Z,29.40
2023-04-23T09:07:48.549Z,29.86
2023-04-23T09:10:18.909Z,29.75
2023-04-23T09:12:50.624Z,29.58
2023-04-23T09:15:21.265Z,29.75
2023-04-23T09:17:52.441Z,29.35
2023-04-23T09:20:23.298Z,29.40
2023-04-23T09:22:55.305Z,29.61
2023-04-23T09:25:27.918Z,29.42
2023-04-23T09:28:01.556Z,29.24
2023-04-23T09:30:32.892Z,28.90
2023-04-23T09:33:03.233Z,29.56
2023-04-23T09:35:39.026Z,29.31
2023-04-23T09:38:12.119Z,29.16
2023-04-23T09:40:43.274Z,28.42
2023-04-23T09:43:14.118Z,29.49
2023-04-23T09:45:54.403Z,28.85
2023-04-23T09:48:24.797Z,29.07
2023-04-23T09:50:57.500Z,29.21
2023-04-23T09:53:28.988Z,29.13
2023-04-23T09:55:59.206Z,28.67
2023-04-23T09:58:29.851Z,28.20
2023-04-23T10:01:11.748Z,28.85
2023-04-23T10:03:45.874Z,28.73
2023-04-23T10:06:25.727Z,29.26
2023-04-23T10:09:07.747Z,28.42
2023-04-23T10:11:38.997Z,29.17
2023-04-23T10:14:10.765Z,28.81
2023-04-23T10:16:49.050Z,29.16
2023-04-23T10:19:25.375Z,28.76
2023-04-23T10:22:18.222Z,28.88
2023-04-23T10:24:57.415Z,28.82
2023-04-23T10:27:40.209Z,29.43
2023-04-23T10:30:20.013Z,28.79
2023-04-23T10:32:52.074Z,28.79
2023-04-23T10:35:22.536Z,29.00
2023-04-23T10:37:53.169Z,28.80
2023-04-23T10:40:31.936Z,28.66
2023-04-23T10:43:03.089Z,28.70
2023-04-23T10:45:34.500Z,28.68
2023-04-23T10:48:06.097Z,28.90
2023-04-23T10:50:47.731Z,29.00
2023-04-23T10:53:28.778Z,29.08
2023-04-23T10:56:09.303Z,28.76
2023-04-23T10:58:53.324Z,29.29
2023-04-23T11:01:33.126Z,29.29
2023-04-23T11:04:25.956Z,29.15
2023-04-23T11:06:58.664Z,29.43
2023-04-23T11:09:34.763Z,28.93
2023-04-23T11:12:08.429Z,29.09
2023-04-23T11:14:48.100Z,29.06
2023-04-23T11:17:20.665Z,29.10
2023-04-23T11:20:14.964Z,28.74
2023-04-23T11:22:47.056Z,28.81
2023-04-23T11:25:24.076Z,28.90
2023-04-23T11:27:56.801Z,29.06
2023-04-23T11:30:29.562Z,28.59
2023-04-23T11:33:02.908Z,28.94
2023-04-23T11:35:41.125Z,29.17
2023-04-23T11:38:12.648Z,28.82
2023-04-23T11:40:44.373Z,28.55
2023-04-23T11:43:22.439Z,28.61
2023-04-23T11:45:52.933Z,28.67
2023-04-23T11:48:23.227Z,29.01
2023-04-23T11:50:55.237Z,28.33
2023-04-23T11:53:26.474Z,28.76
2023-04-23T11:55:56.944Z,28.38
2023-04-23T11:58:27.416Z,28.59
2023-04-23T12:01:02.133Z,28.21
2023-04-23T12:03:32.683Z,28.38
2023-04-23T12:06:04.504Z,28.59
2023-04-23T12:08:38.977Z,28.77
2023-04-23T12:11:09.579Z,28.68
2023-04-23T12:13:44.327Z,28.40
2023-04-23T12:16:14.712Z,28.42
2023-04-23T12:18:45.833Z,28.22
2023-04-23T12:21:20.342Z,28.43
2023-04-23T12:23:54.167Z,28.15
2023-04-23T12:26:26.493Z,28.63
2023-04-23T12:29:00.657Z,28.38
2023-04-23T12:31:32.506Z,27.93
2023-04-23T12:34:10.854Z,27.94
2023-04-23T12:36:42.641Z,28.23
2023-04-23T12:39:33.494Z,28.08
2023-04-23T12:42:09.734Z,28.63
2023-04-23T12:44:41.199Z,28.54
2023-04-23T12:47:13.155Z,28.06
2023-04-23T12:49:45.381Z,27.68
2023-04-23T12:52:16.567Z,28.37
2023-04-23T12:54:47.049Z,28.44
2023-04-23T12:57:18.665Z,28.30
2023-04-23T12:59:50.869Z,27.76
2023-04-23T13:02:22.381Z,27.67
2023-04-23T13:04:53.481Z,28.01
2023-04-23T13:07:24.032Z,27.96
2023-04-23T13:09:54.558Z,27.98
2023-04-23T13:12:25.619Z,28.00
2023-04-23T13:14:56.101Z,28.06
2023-04-23T13:17:27.963Z,28.22
2023-04-23T13:19:58.761Z,27.91
2023-04-23T13:22:32.012Z,27.72
2023-04-23T13:25:02.378Z,28.06
2023-04-23T13:27:33.730Z,28.09
2023-04-23T13:30:04.817Z,28.49
2023-04-23T13:32:35.439Z,28.28
2023-04-23T13:35:06.608Z,27.98
2023-04-23T13:37:38.492Z,28.44
2023-04-23T13:40:09.407Z,28.10
2023-04-23T13:42:40.136Z,28.16
2023-04-23T13:45:12.530Z,28.02
2023-04-23T13:47:44.110Z,28.13
2023-04-23T13:50:15.098Z,28.50
2023-04-23T13:52:45.658Z,27.89
2023-04-23T13:55:16.499Z,28.42
2023-04-23T13:57:46.933Z,28.18
2023-04-23T14:02:53.325Z,27.97
2023-04-23T14:05:24.044Z,28.36
2023-04-23T14:07:54.580Z,28.38
2023-04-23T14:10:25.205Z,28.49
2023-04-23T14:12:57.129Z,28.36
2023-04-23T14:15:27.716Z,27.98
2023-04-23T14:17:58.053Z,28.23
2023-04-23T14:20:28.452Z,27.95
2023-04-23T14:23:04.097Z,28.43
2023-04-23T14:25:43.238Z,28.26
2023-04-23T14:28:37.661Z,28.74
2023-04-23T14:31:09.115Z,28.49
2023-04-23T14:33:39.645Z,28.38
2023-04-23T14:36:10.229Z,27.92
2023-04-23T14:38:40.751Z,27.91
2023-04-23T14:41:11.790Z,28.45
2023-04-23T14:43:42.120Z,27.88
2023-04-23T14:46:12.410Z,28.53
2023-04-23T14:48:42.932Z,28.42
2023-04-23T14:51:13.348Z,28.11
2023-04-23T14:53:43.803Z,28.26
2023-04-23T14:56:14.298Z,28.25
2023-04-23T14:58:44.794Z,28.00
2023-04-23T15:01:15.491Z,28.34
2023-04-23T15:03:47.355Z,28.12
2023-04-23T15:06:17.880Z,28.04
2023-04-23T15:08:48.605Z,28.35
2023-04-23T15:11:19.216Z,28.06
2023-04-23T15:13:53.461Z,28.52
2023-04-23T15:16:48.162Z,28.46
2023-04-23T15:19:20.824Z,28.39
2023-04-23T15:21:51.500Z,28.81
2023-04-23T15:24:22.439Z,28.53
2023-04-23T15:26:54.831Z,28.56
2023-04-23T15:29:25.870Z,28.55
2023-04-23T15:31:59.480Z,28.67
2023-04-23T15:34:30.016Z,28.08
2023-04-23T15:37:00.404Z,28.04
2023-04-23T15:39:31.699Z,28.38
2023-04-23T15:42:02.150Z,28.47
2023-04-23T15:44:33.461Z,28.53
2023-04-23T15:47:04.958Z,28.68
2023-04-23T15:49:35.423Z,28.64
2023-04-23T15:52:05.859Z,28.38
2023-04-23T15:54:36.670Z,28.24
2023-04-23T15:57:06.979Z,28.38
2023-04-23T15:59:37.873Z,28.04
2023-04-23T16:02:08.572Z,28.64
2023-04-23T16:04:39.638Z,28.30
2023-04-23T16:07:10.765Z,28.34
2023-04-23T16:09:41.419Z,28.73
2023-04-23T16:12:12.010Z,28.89
2023-04-23T16:14:44.132Z,28.75
2023-04-23T16:17:14.534Z,28.29
2023-04-23T16:19:45.359Z,28.62
2023-04-23T16:22:17.544Z,28.40
2023-04-23T16:24:48.044Z,27.97
2023-04-23T16:27:18.711Z,28.88
2023-04-23T16:29:49.515Z,28.12
2023-04-23T16:32:20.613Z,28.81
2023-04-23T16:34:50.950Z,28.63
2023-04-23T16:37:21.601Z,28.80
2023-04-23T16:39:51.997Z,28.64
2023-04-23T16:42:23.495Z,28.68
2023-04-23T16:44:54.563Z,28.88
2023-04-23T16:47:25.257Z,28.42
2023-04-23T16:49:55.730Z,28.55
2023-04-23T16:52:26.301Z,28.37
2023-04-23T16:54:57.551Z,28.49
2023-04-23T16:57:29.024Z,28.50
2023-04-23T16:59:59.370Z,28.30
2023-04-23T17:02:29.918Z,28.69
2023-04-23T17:05:00.434Z,29.01
2023-04-23T17:07:31.072Z,28.63
2023-04-23T17:10:01.672Z,28.24
2023-04-23T17:12:32.229Z,28.79
2023-04-23T17:15:02.757Z,28.35
2023-04-23T17:17:33.552Z,28.37
2023-04-23T17:20:05.400Z,28.56
2023-04-23T17:22:37.156Z,28.44
2023-04-23T17:25:07.963Z,28.68
2023-04-23T17:27:38.603Z,28.91
2023-04-23T17:30:09.872Z,28.17
2023-04-23T17:32:40.836Z,28.57
2023-04-23T17:35:11.521Z,28.45
2023-04-23T17:37:42.825Z,28.40
2023-04-23T17:40:13.358Z,28.90
2023-04-23T17:42:44.057Z,28.78
2023-04-23T17:45:14.576Z,28.53
2023-04-23T17:47:44.875Z,28.46
2023-04-23T17:50:15.793Z,28.93
2023-04-23T17:52:46.673Z,28.59
2023-04-23T17:55:17.073Z,28.56
2023-04-23T17:57:47.585Z,29.14
2023-04-23T18:00:19.224Z,29.11
2023-04-23T18:02:49.898Z,28.41
2023-04-23T18:05:20.689Z,29.00
2023-04-23T18:07:51.379Z,28.81
2023-04-23T18:10:22.726Z,28.58
2023-04-23T18:12:53.422Z,28.56
2023-04-23T18:15:24.208Z,28.84
2023-04-23T18:17:57.183Z,29.07
2023-04-23T18:20:28.226Z,28.66
2023-04-23T18:22:58.579Z,29.32
2023-04-23T18:25:28.818Z,29.05
2023-04-23T18:27:59.601Z,29.26
2023-04-23T18:30:30.258Z,28.70
2023-04-23T18:33:34.708Z,28.83
2023-04-23T18:36:12.406Z,28.83
2023-04-23T18:38:49.240Z,29.17
2023-04-23T18:41:19.714Z,28.88
2023-04-23T18:43:50.112Z,28.83
2023-04-23T18:46:21.529Z,28.81
2023-04-23T18:48:56.035Z,28.85
2023-04-23T18:51:45.602Z,28.84
2023-04-23T18:54:16.566Z,28.79
2023-04-23T18:56:47.866Z,28.79
2023-04-23T18:59:18.493Z,28.72
2023-04-23T19:01:49.734Z,29.18
2023-04-23T19:04:20.265Z,29.01
2023-04-23T19:06:51.697Z,28.98
2023-04-23T19:09:21.924Z,28.62
2023-04-23T19:11:52.311Z,29.29
2023-04-23T19:14:22.685Z,29.12
2023-04-23T19:16:53.615Z,28.71
2023-04-23T19:19:25.842Z,28.52
2023-04-23T19:21:56.557Z,28.91
2023-04-23T19:24:26.982Z,29.02
2023-04-23T19:26:57.991Z,28.82
2023-04-23T19:29:28.383Z,28.94
2023-04-23T19:31:59.607Z,28.87
2023-04-23T19:34:29.766Z,28.93
2023-04-23T19:37:00.197Z,28.88
2023-04-23T19:39:30.606Z,28.84
2023-04-23T19:42:01.031Z,29.10
2023-04-23T19:44:31.898Z,28.93
2023-04-23T19:47:02.280Z,28.93
2023-04-23T19:49:33.467Z,29.03
2023-04-23T19:52:06.476Z,28.92
2023-04-23T19:54:36.879Z,28.78
2023-04-23T19:57:07.104Z,28.81
2023-04-23T19:59:37.658Z,28.53
2023-04-23T20:02:08.191Z,29.00
2023-04-23T20:04:38.860Z,28.84
2023-04-23T20:07:09.318Z,28.82
2023-04-23T20:09:39.922Z,28.74
2023-04-23T20:12:10.666Z,28.89
2023-04-23T20:14:41.063Z,29.12
2023-04-23T20:17:12.134Z,28.88
2023-04-23T20:19:42.879Z,28.75
2023-04-23T20:22:13.665Z,28.91
2023-04-23T20:24:47.832Z,28.90
2023-04-23T20:27:18.736Z,28.95
2023-04-23T20:29:49.904Z,29.13
2023-04-23T20:32:20.298Z,28.88
2023-04-23T20:34:50.715Z,29.19
2023-04-23T20:37:23.066Z,28.93
2023-04-23T20:39:53.860Z,29.25
2023-04-23T20:42:24.751Z,29.02
2023-04-23T20:44:54.923Z,29.34
2023-04-23T20:47:25.382Z,29.45
2023-04-23T20:49:55.860Z,29.66
2023-04-23T20:52:26.421Z,29.09
2023-04-23T20:54:56.879Z,29.26
2023-04-23T20:57:30.273Z,29.18
2023-04-23T21:00:00.710Z,29.34
2023-04-23T21:02:31.476Z,29.39
2023-04-23T21:05:02.280Z,29.22
2023-04-23T21:07:33.269Z,29.73
2023-04-23T21:10:04.546Z,29.34
2023-04-23T21:12:35.394Z,29.77
2023-04-23T21:15:06.701Z,29.56
2023-04-23T21:17:37.158Z,29.62
2023-04-23T21:20:09.553Z,29.15
2023-04-23T21:22:40.103Z,29.71
2023-04-23T21:25:11.962Z,29.95
2023-04-23T21:27:47.923Z,29.43
2023-04-23T21:30:40.865Z,29.68
2023-04-23T21:33:11.746Z,29.76
2023-04-23T21:35:41.961Z,29.88
2023-04-23T21:38:13.709Z,29.86
2023-04-23T21:40:44.066Z,29.75
2023-04-23T21:43:14.845Z,29.65
2023-04-23T21:45:45.252Z,29.69
2023-04-23T21:48:16.507Z,29.71
2023-04-23T21:50:46.961Z,29.86
2023-04-23T21:53:17.594Z,30.02
2023-04-23T21:55:47.833Z,29.80
2023-04-23T21:58:18.760Z,30.02
2023-04-23T22:00:50.402Z,29.80
2023-04-23T22:03:32.936Z,30.07
2023-04-23T22:06:11.234Z,29.94
2023-04-23T22:08:42.434Z,30.13
2023-04-23T22:11:12.961Z,30.00
2023-04-23T22:13:43.890Z,29.82
2023-04-23T22:16:24.917Z,29.74
2023-04-23T22:18:59.286Z,29.93
2023-04-23T22:21:29.882Z,30.20
2023-04-23T22:24:00.798Z,29.72
2023-04-23T22:26:31.377Z,29.89
2023-04-23T22:29:02.172Z,29.44
2023-04-23T22:31:32.558Z,29.79
2023-04-23T22:34:03.978Z,30.21
2023-04-23T22:36:34.515Z,29.76
2023-04-23T22:39:07.949Z,30.16
2023-04-23T22:41:40.495Z,30.14
2023-04-23T22:44:10.982Z,30.56
2023-04-23T22:46:41.938Z,29.96
2023-04-23T22:49:15.630Z,30.51
2023-04-23T22:51:46.815Z,30.08
2023-04-23T22:54:17.724Z,30.07
2023-04-23T22:56:48.210Z,29.98
2023-04-23T22:59:19.426Z,30.05
2023-04-23T23:01:50.265Z,30.10
2023-04-23T23:04:20.963Z,29.88
2023-04-23T23:06:51.814Z,29.85
2023-04-23T23:09:22.216Z,30.08
2023-04-23T23:11:52.626Z,30.15
2023-04-23T23:14:23.389Z,30.08
2023-04-23T23:16:55.029Z,29.97
2023-04-23T23:19:27.278Z,30.26
2023-04-23T23:21:58.090Z,29.73
2023-04-23T23:24:28.598Z,30.38
2023-04-23T23:26:58.992Z,30.12
2023-04-23T23:29:29.374Z,30.57
2023-04-23T23:32:00.397Z,29.97
2023-04-23T23:34:32.549Z,30.04
2023-04-23T23:37:02.916Z,29.89
2023-04-23T23:39:33.454Z,30.26
2023-04-23T23:42:04.337Z,30.04
2023-04-23T23:44:35.149Z,30.41
2023-04-23T23:47:06.118Z,30.31
2023-04-23T23:49:37.272Z,30.65
2023-04-23T23:52:08.080Z,30.12
2023-04-23T23:54:38.668Z,30.40
2023-04-23T23:57:09.874Z,30.13
2023-04-23T23:59:40.928Z,30.64
